Date,TemperatureHighF,TemperatureAvgF,TemperatureLowF,DewpointHighF,DewpointAvgF,DewpointLowF,HumidityHigh,HumidityAvg,HumidityLow,PressureMaxIn,PressureMinIn,WindSpeedMaxMPH,WindSpeedAvgMPH,GustSpeedMaxMPH,PrecipitationSumIn
2013-1-1,21.6,15.3,9.3,11.1,4.4,-0.7,68,62,51,30.20,30.11,17,9,26,0.00
2013-1-2,32.9,19.1,7.7,16.3,7.5,-2.6,70,60,48,30.17,30.05,23,9,28,0.00
2013-1-3,31.1,25.6,16.2,25.2,17.9,10.2,87,73,55,30.26,30.08,26,11,30,0.00
2013-1-4,35.6,23.1,11.8,20.7,14.5,5.8,80,70,53,30.26,30.14,30,13,34,0.00
2013-1-5,36.9,29.5,19.4,33.5,25.2,14.8,94,84,63,30.23,29.93,29,8,30,0.00
2013-1-6,35.6,25.8,16.7,33.5,20.5,13.5,93,80,67,30.32,29.91,26,10,26,0.00
2013-1-7,40.5,27.8,16.2,26.1,20.2,11.4,88,74,53,30.32,30.08,30,10,37,0.00
2013-1-8,46.0,34.7,25.9,30.8,26.7,21.7,85,73,53,30.14,29.99,26,9,31,0.00
2013-1-9,48.9,37.5,27.7,33.3,26.2,19.6,88,66,38,30.47,29.99,29,11,38,0.00
2013-1-10,45.5,33.9,22.8,41.2,27.3,18.2,98,78,47,30.47,29.85,26,7,31,0.59
2013-1-11,51.8,48.3,42.3,50.5,47.4,41.7,98,97,89,29.85,29.61,31,11,35,0.24
2013-1-12,51.8,40.2,28.2,49.0,35.2,23.9,90,82,74,29.99,29.70,25,12,35,0.00
2013-1-13,28.9,20.7,12.7,26.4,15.4,4.8,93,80,69,30.23,29.85,23,10,25,0.04
2013-1-14,23.9,16.5,11.3,13.0,8.5,3.4,80,70,60,30.41,30.23,15,4,17,0.00
2013-1-15,29.8,20.7,12.4,18.1,13.3,7.4,83,73,56,30.41,30.08,8,1,12,0.00
2013-1-16,36.1,27.0,15.8,28.3,19.3,11.0,87,73,59,30.08,29.82,26,10,36,0.00
2013-1-17,34.7,26.5,21.2,30.8,15.7,9.4,91,64,46,30.38,30.02,22,8,30,0.00
2013-1-18,42.8,31.8,18.5,29.3,22.6,13.0,81,69,58,30.41,29.91,33,13,49,0.00
2013-1-19,48.6,40.2,27.0,37.1,29.8,11.7,74,67,45,29.93,29.73,40,15,46,0.00
2013-1-20,26.4,17.2,12.4,11.2,2.5,-0.7,55,52,47,30.29,29.96,26,11,38,0.00
2013-1-21,15.3,8.5,4.6,0.8,-4.7,-8.3,54,54,52,30.26,30.11,26,14,34,0.00
2013-1-22,12.2,5.6,-0.9,-1.3,-7.5,-13.6,54,54,54,30.38,30.26,24,9,26,0.00
2013-1-23,21.2,15.8,11.1,9.4,3.8,-2.3,69,59,54,30.32,30.08,35,9,38,0.00
2013-1-24,23.2,14.5,5.0,6.2,-0.2,-7.3,56,52,45,30.58,30.32,23,10,33,0.00
2013-1-25,31.5,23.5,18.7,19.1,12.7,4.3,79,63,50,30.32,29.93,17,10,28,0.00
2013-1-26,27.0,19.1,8.8,14.2,6.4,-1.2,65,57,48,30.38,30.17,12,4,17,0.00
2013-1-27,35.6,29.6,23.9,35.1,23.7,14.4,98,79,64,30.35,29.88,22,7,30,0.16
2013-1-28,46.9,43.4,36.7,46.4,42.9,36.2,98,98,97,29.91,29.76,20,6,31,0.08
2013-1-29,63.3,56.5,46.0,61.0,55.7,45.5,98,97,92,29.76,29.37,32,11,39,0.98
2013-1-30,50.9,34.4,21.2,50.4,33.0,15.2,98,95,76,29.64,29.20,22,5,31,0.39
2013-1-31,21.2,13.4,3.9,15.7,4.6,-5.5,79,67,64,30.17,29.64,0,0,0,0.00
2013-2-1,16.0,7.1,-0.6,9.8,-2.3,-9.8,76,65,64,30.35,30.14,0,0,0,0.00
2013-2-2,24.4,17.4,9.5,21.7,11.9,-0.2,90,79,64,30.14,29.96,0,0,0,0.04
2013-2-3,23.0,18.0,9.5,18.3,9.8,-0.2,89,70,58,30.05,29.93,17,6,26,0.00
2013-2-4,29.5,22.6,11.8,22.9,17.5,4.6,89,81,72,29.99,29.82,22,9,22,0.00
2013-2-5,32.5,24.3,11.1,28.0,18.6,3.9,87,79,72,30.05,29.79,22,7,26,0.00
2013-2-6,41.0,31.4,18.7,31.3,24.5,13.6,90,76,64,30.20,30.05,20,6,25,0.04
2013-2-7,34.9,33.4,31.1,34.4,32.6,30.5,98,97,90,30.05,29.85,17,4,22,0.59
2013-2-8,31.1,24.2,21.7,30.6,20.8,18.5,98,87,80,30.38,29.96,17,2,23,0.00
2013-2-9,33.8,29.2,23.0,29.0,25.5,20.7,93,86,78,30.38,30.02,25,8,38,0.00
2013-2-10,47.3,39.2,30.7,46.8,37.4,27.9,98,94,62,30.05,29.46,38,16,49,0.31
2013-2-11,42.4,33.3,27.9,31.8,23.6,19.0,73,67,62,30.02,29.49,41,21,50,0.00
2013-2-12,31.1,27.0,23.4,22.1,19.9,18.3,88,75,63,30.08,29.91,22,8,26,0.00
2013-2-13,43.5,32.5,21.7,32.4,27.1,19.3,95,81,58,29.88,29.70,20,5,22,0.00
2013-2-14,39.9,36.1,32.9,32.1,28.8,24.2,87,75,61,29.96,29.64,23,11,34,0.00
2013-2-15,32.9,27.7,20.5,28.0,15.6,6.5,84,61,45,30.17,29.96,30,11,34,0.00
2013-2-16,22.3,16.8,10.4,6.7,3.4,-1.8,62,55,48,30.17,30.08,22,8,28,0.00
2013-2-17,33.3,21.3,7.9,18.5,7.6,-4.2,66,55,44,30.17,29.93,20,7,31,0.00
2013-2-18,53.1,38.8,26.2,45.7,31.2,17.6,98,75,59,29.93,29.40,33,15,40,0.28
2013-2-19,26.1,14.8,9.0,20.8,6.4,-1.1,80,69,61,30.17,29.61,0,0,0,0.00
2013-2-20,21.7,14.2,6.8,11.1,4.3,-3.1,74,64,58,30.35,30.20,16,2,26,0.00
2013-2-21,30.7,24.1,14.9,24.2,18.0,8.4,92,77,72,30.35,29.93,30,9,36,0.00
2013-2-22,34.3,28.1,23.5,33.5,24.9,21.4,98,88,75,29.93,29.79,30,12,32,0.00
2013-2-23,26.8,24.1,19.0,22.0,17.7,14.7,84,76,67,29.93,29.91,19,11,25,0.00
2013-2-24,37.9,24.6,10.0,22.8,16.9,6.7,87,74,53,30.11,29.93,12,3,12,0.16
2013-2-25,43.7,31.9,20.8,29.6,24.0,17.0,88,73,54,30.11,29.91,17,5,17,0.00
2013-2-26,36.3,34.0,32.2,33.5,29.5,24.4,98,85,62,29.91,29.49,26,13,42,0.00
2013-2-27,33.8,32.3,30.0,33.0,30.7,28.3,98,94,86,29.70,29.49,22,7,26,0.00
2013-2-28,36.3,33.5,28.8,32.1,28.5,19.5,97,82,68,30.05,29.70,29,12,35,0.16
2013-3-1,28.8,26.1,24.8,22.6,19.7,17.3,86,77,68,30.17,30.02,24,12,31,0.00
2013-3-2,27.5,22.7,15.3,17.7,13.2,7.2,77,67,52,30.17,30.14,26,10,30,0.00
2013-3-3,31.1,21.5,11.5,12.1,9.3,5.4,77,60,42,30.14,30.05,12,3,15,0.00
2013-3-4,33.1,28.0,19.2,25.7,20.0,11.9,80,72,61,30.08,29.93,21,10,29,0.00
2013-3-5,34.5,33.0,32.2,33.8,30.2,25.7,98,90,75,29.93,29.76,21,5,21,0.00
2013-3-7,22.5,22.1,21.7,17.8,17.6,17.4,83,82,82,30.38,30.38,0,0,0,0.00
2013-3-8,39.4,28.9,17.1,28.7,22.8,14.0,91,79,64,30.44,30.26,22,6,26,0.00
2013-3-9,39.9,36.2,29.7,34.3,30.8,24.0,91,81,75,30.26,29.79,22,10,29,0.04
2013-3-10,45.5,41.4,37.4,45.0,40.7,34.0,98,97,82,29.85,29.55,15,5,21,0.83
2013-3-11,44.4,36.5,32.4,43.9,35.4,28.6,98,96,86,29.79,29.55,17,9,24,0.08
2013-3-12,37.6,31.2,27.0,30.2,23.9,17.0,87,75,60,30.02,29.79,31,9,38,0.00
2013-3-13,32.0,27.3,23.5,18.7,15.5,11.4,74,62,43,30.29,30.02,21,11,34,0.00
2013-3-14,36.0,29.8,22.6,32.8,23.8,16.5,95,79,60,30.32,30.05,17,6,23,0.00
2013-3-15,41.0,34.9,29.3,37.7,33.0,28.3,98,93,83,30.05,29.70,17,5,22,0.00
2013-3-16,34.9,33.2,32.0,34.4,30.6,23.9,98,90,70,30.02,29.67,22,9,30,0.00
2013-3-17,38.8,28.7,0.0,24.4,19.6,0.0,73,54,53,30.11,29.32,25,11,31,0.00
2013-3-18,35.4,31.4,22.1,34.1,26.9,9.2,97,84,57,29.99,29.67,32,10,39,0.04
2013-3-19,33.4,26.9,17.1,16.6,12.3,5.9,61,54,47,30.14,29.93,31,18,41,0.00
2013-3-20,26.1,19.9,13.3,12.5,5.7,0.3,68,53,48,30.17,30.08,26,14,33,0.00
2013-3-21,32.5,22.4,12.4,15.6,9.7,3.5,68,58,47,30.11,30.05,16,7,24,0.00
2013-3-22,39.6,28.8,17.6,19.7,15.7,12.1,79,59,43,30.11,30.02,12,4,17,0.00
2013-3-23,44.2,34.3,25.7,23.9,20.9,19.5,81,59,41,30.17,30.02,17,6,25,0.00
2013-3-24,37.8,33.3,30.7,30.2,25.4,22.1,97,73,55,30.05,29.70,26,11,34,0.00
2013-3-25,36.7,32.4,28.0,28.0,24.9,21.8,80,74,67,30.11,29.75,35,15,46,0.08
2013-3-26,40.6,35.5,32.5,27.5,25.1,21.2,79,66,48,30.29,30.11,16,8,21,0.00
2013-3-27,42.8,36.7,28.2,27.0,22.7,19.3,75,58,41,30.35,30.29,12,5,21,0.00
2013-3-28,49.1,37.5,25.3,28.7,23.9,20.2,82,60,40,30.40,30.32,12,3,17,0.00
2013-3-29,55.2,42.7,30.6,30.7,26.8,21.5,78,55,38,30.35,30.26,12,2,16,0.00
2013-3-30,59.4,45.6,30.0,40.7,31.6,19.5,75,59,42,30.29,29.87,30,9,36,0.00
2013-3-31,57.6,47.0,37.2,44.6,36.0,26.4,98,68,40,29.93,29.75,26,12,35,0.00
2013-4-1,39.4,34.2,28.9,24.1,18.0,14.1,66,52,40,30.23,29.93,31,11,31,0.00
2013-4-2,44.1,33.9,24.1,19.5,17.0,15.2,72,51,35,30.35,30.23,17,8,26,0.00
2013-4-3,52.5,36.8,25.3,24.0,17.4,13.0,61,46,32,30.46,30.35,17,7,22,0.00
2013-4-4,57.7,40.6,26.4,31.3,22.1,12.9,63,49,32,30.35,30.02,18,6,22,0.00
2013-4-5,54.3,43.8,34.0,32.6,25.1,16.5,73,49,35,30.26,30.05,19,9,29,0.00
2013-4-6,67.6,52.2,35.8,38.6,30.5,16.6,59,44,34,30.14,29.64,45,17,51,0.08
2013-4-7,64.2,50.9,41.0,47.2,39.3,33.2,86,67,37,29.99,29.67,22,9,26,0.00
2013-4-8,68.5,55.9,41.5,55.2,48.1,33.4,98,76,58,29.99,29.64,36,13,56,0.39
2013-4-9,66.2,48.8,44.1,57.3,45.7,41.0,98,90,72,29.99,29.84,17,10,27,0.39
2013-4-10,44.1,40.2,37.9,41.9,39.4,37.4,98,97,93,30.02,29.81,26,12,38,1.06
2013-4-11,50.5,43.9,39.7,49.8,43.0,35.8,98,97,85,29.87,29.61,29,11,39,0.16
2013-4-12,44.2,38.8,36.5,39.1,33.9,30.2,98,82,70,29.90,29.61,29,13,32,0.08
2013-4-13,46.8,39.9,34.3,34.2,29.8,25.4,88,68,49,30.02,29.90,22,10,30,0.00
2013-4-14,72.7,55.0,39.4,52.1,41.3,31.8,78,61,42,30.02,29.67,36,15,49,0.00
2013-4-15,64.8,55.5,45.0,55.5,49.6,40.8,98,81,56,30.02,29.70,44,11,51,0.24
2013-4-16,55.4,46.8,37.9,43.9,36.9,33.8,96,70,47,30.29,29.99,20,7,20,0.00
2013-4-17,49.6,45.1,42.3,49.1,40.1,31.2,98,84,60,30.29,29.81,26,10,35,1.38
2013-4-18,62.6,52.2,38.7,61.5,50.7,32.9,98,95,76,29.90,29.46,38,14,50,2.56
2013-4-19,38.8,37.3,34.5,32.7,29.0,27.0,80,72,64,29.99,29.55,39,19,48,0.00
2013-4-20,46.2,37.8,31.1,28.4,25.6,21.1,87,63,45,30.43,29.99,17,7,22,0.00
2013-4-21,56.1,44.0,31.5,35.1,29.4,22.9,73,57,44,30.55,30.35,28,11,35,0.00
2013-4-22,68.2,53.6,38.5,41.2,36.9,31.9,78,56,35,30.35,30.08,26,10,37,0.00
2013-4-23,54.5,46.9,37.8,50.7,44.0,37.0,98,90,61,30.08,29.93,26,7,26,0.47
2013-4-24,51.1,42.5,35.4,38.7,31.3,26.6,98,67,42,30.17,29.99,22,10,27,0.04
2013-4-25,53.4,44.4,39.6,36.8,30.1,24.8,86,58,37,30.35,30.11,24,10,34,0.00
2013-4-26,67.8,52.9,36.7,45.7,38.3,27.2,78,59,43,30.37,30.26,35,12,39,0.00
2013-4-27,70.2,57.2,41.9,49.0,44.1,39.9,96,65,35,30.35,30.02,29,7,29,0.00
2013-4-28,67.1,58.3,53.1,54.6,52.5,49.0,96,82,60,30.02,29.87,11,3,12,0.00
2013-4-29,75.9,63.2,50.0,57.3,53.4,48.3,95,73,45,29.96,29.78,30,12,39,0.00
2013-4-30,86.9,71.2,57.6,61.6,56.5,52.3,93,64,34,29.99,29.81,28,14,37,0.00
2013-5-1,86.7,73.7,58.6,59.7,54.1,48.7,87,54,29,30.17,29.99,25,8,32,0.00
2013-5-2,66.0,56.1,46.4,54.2,47.6,42.3,96,73,57,30.26,30.14,19,7,22,0.20
2013-5-3,55.9,48.1,41.7,53.4,46.5,40.2,98,94,87,30.14,29.96,16,8,24,0.08
2013-5-4,74.3,60.4,51.1,55.2,51.9,49.8,96,76,46,30.08,29.96,17,6,26,0.00
2013-5-5,75.4,63.0,51.8,53.8,47.3,42.7,97,61,32,30.08,29.99,17,6,26,0.00
2013-5-6,75.7,63.9,54.7,46.7,42.9,35.9,67,49,25,30.08,29.99,16,5,22,0.00
2013-5-8,79.0,70.6,61.3,46.8,45.0,43.3,58,41,30,30.02,29.99,7,1,15,0.00
2013-5-9,74.3,62.9,57.9,61.9,55.2,46.3,98,77,51,29.99,29.84,21,4,26,0.35
2013-5-10,57.4,50.0,45.9,56.8,47.9,45.3,98,92,85,30.02,29.81,12,5,18,0.04
2013-5-11,59.2,51.1,43.3,51.2,39.1,27.8,98,68,36,30.11,29.90,26,8,34,0.00
2013-5-12,56.1,47.1,37.0,30.2,27.3,24.9,65,47,35,30.17,30.11,17,7,26,0.00
2013-5-13,67.6,54.0,34.5,35.7,30.7,26.7,77,44,25,30.23,30.02,12,3,15,0.00
2013-5-14,92.3,73.1,54.0,56.8,47.5,35.2,57,42,23,30.02,29.70,19,7,25,0.00
2013-5-15,83.5,75.7,66.4,55.2,47.9,41.8,53,38,26,29.87,29.70,18,6,26,0.00
2013-5-16,83.1,71.4,56.8,49.0,44.4,40.7,70,40,23,29.99,29.87,19,5,30,0.00
2013-5-17,80.8,66.5,58.3,58.6,50.8,40.7,75,58,43,30.05,29.99,17,4,22,0.08
2013-5-18,80.2,69.5,57.0,64.5,58.9,50.7,98,71,51,30.08,29.96,17,5,26,0.00
2013-5-19,89.1,76.1,60.8,65.8,61.7,56.9,97,65,39,29.99,29.78,20,7,31,0.00
2013-5-20,86.4,77.2,64.6,68.5,59.8,54.2,91,58,35,29.84,29.72,21,9,32,0.39
2013-5-21,81.9,72.4,64.0,66.2,61.8,57.9,95,71,46,29.75,29.70,17,7,31,0.04
2013-5-24,59.2,52.7,48.0,36.8,35.3,33.4,62,52,41,30.40,30.35,10,3,12,0.00
2013-5-25,58.8,52.5,46.9,44.6,39.2,35.2,81,61,42,30.43,30.32,12,3,17,0.00
2013-5-26,63.1,55.1,44.6,55.7,47.3,37.8,94,76,53,30.32,30.14,17,6,23,0.16
2013-5-27,66.4,61.5,56.7,62.9,59.7,55.0,98,94,85,30.17,29.87,15,8,21,0.24
2013-5-28,71.8,67.1,62.2,68.0,65.2,61.7,98,94,88,29.90,29.75,17,6,34,0.51
2013-5-29,83.5,69.6,66.2,69.5,65.4,64.1,97,87,61,29.99,29.81,17,6,30,0.12
2013-5-30,84.0,74.7,63.9,71.1,67.0,59.2,98,77,61,29.96,29.78,44,13,49,0.28
2013-5-31,75.2,69.2,63.0,69.0,65.0,61.5,98,87,68,29.90,29.75,21,7,26,0.20
2013-6-1,72.1,68.7,65.3,69.4,64.2,62.9,98,86,79,29.78,29.72,21,8,25,0.12
2013-6-2,68.7,59.2,53.1,63.3,53.9,47.4,98,83,67,30.08,29.78,14,5,20,0.00
2013-6-3,67.8,58.0,44.8,54.5,47.8,44.2,98,72,48,30.17,30.08,11,2,17,0.00
2013-6-4,72.5,64.2,49.1,51.6,47.8,44.5,90,58,42,30.20,30.11,17,5,21,0.00
2013-6-5,72.5,69.5,57.4,52.7,48.7,47.4,74,49,42,30.14,29.94,17,5,19,6.65
2013-6-6,68.2,60.0,54.9,58.8,53.1,47.4,97,79,58,29.97,29.88,12,4,20,0.28
2013-6-7,70.9,61.7,54.3,54.6,48.5,43.3,79,64,40,29.97,29.91,15,3,20,0.00
2013-6-8,75.7,64.7,50.7,48.9,45.0,40.4,85,52,34,30.00,29.94,8,2,14,0.00
2013-6-9,81.9,70.2,57.6,64.2,54.2,42.0,96,60,36,30.00,29.82,22,6,32,0.08
2013-6-10,79.3,70.3,62.4,66.3,62.8,59.5,98,79,55,29.88,29.76,7,1,12,0.04
2013-6-11,86.0,74.4,60.4,67.5,62.8,59.0,97,70,43,29.97,29.82,12,2,21,0.00
2013-6-12,88.9,74.0,65.5,73.2,68.4,64.9,98,84,58,29.94,29.62,22,5,44,1.93
2013-6-13,78.1,69.3,61.7,65.1,58.1,52.7,98,70,43,30.06,29.67,14,4,21,0.04
2013-6-14,77.4,66.6,55.2,59.9,54.8,51.0,87,67,46,30.15,30.03,12,3,16,0.00
2013-6-15,80.8,70.1,60.6,68.9,62.7,52.8,90,78,65,30.06,29.88,12,4,22,0.00
2013-6-16,84.0,74.5,66.7,68.6,64.3,57.5,92,73,42,29.97,29.88,11,2,24,0.00
2013-6-17,87.1,76.2,63.5,66.4,59.8,52.0,94,61,31,29.97,29.88,10,2,18,0.00
2013-6-18,73.0,65.6,58.3,59.4,54.4,46.1,84,68,51,30.09,29.91,16,5,22,0.00
2013-6-19,79.3,67.9,54.5,58.8,52.3,46.3,80,59,42,30.15,30.09,12,3,17,0.00
2013-6-20,88.5,75.4,60.3,65.5,57.1,47.9,71,55,35,30.18,30.06,11,2,20,0.00
2013-6-21,83.7,72.3,67.8,68.9,65.4,60.5,96,80,59,30.21,29.97,17,4,26,0.43
2013-6-22,78.3,72.5,67.1,74.2,69.2,64.9,98,90,79,30.12,29.97,20,4,24,0.24
2013-6-23,86.5,73.0,65.7,74.3,68.4,62.0,98,87,65,30.06,29.94,36,4,56,1.69
2013-6-24,82.8,71.5,66.6,74.8,68.9,63.7,98,92,73,30.12,29.97,14,2,52,0.75
2013-6-25,84.0,74.4,67.1,76.2,71.2,66.5,98,90,75,30.00,29.82,15,3,22,0.04
2013-6-26,80.2,73.5,68.4,73.0,70.0,67.6,98,89,75,29.85,29.73,21,4,21,0.00
2013-6-27,87.8,77.3,68.5,74.3,68.4,59.6,98,76,48,29.82,29.73,12,3,16,0.00
2013-6-28,80.6,71.7,65.8,68.1,61.2,57.0,92,71,46,29.76,29.65,11,3,22,0.12
2013-6-29,69.8,66.3,63.1,66.0,62.9,56.6,98,89,74,29.79,29.62,10,2,14,1.69
2013-6-30,77.2,67.8,61.2,62.0,55.4,43.7,90,67,41,30.00,29.79,19,5,25,0.00
2013-7-1,75.6,67.6,58.1,52.6,48.6,45.4,75,52,35,30.09,30.00,25,4,25,0.00
2013-7-2,72.0,64.8,58.6,55.7,52.5,48.7,81,65,49,30.12,30.06,18,2,19,0.00
2013-7-3,69.3,63.6,60.4,64.6,60.8,55.3,98,91,82,30.09,30.03,0,0,4,0.16
2013-7-4,82.6,70.5,57.2,66.7,62.3,56.6,98,77,46,30.12,30.06,12,2,21,0.00
2013-7-5,82.9,73.6,61.9,68.4,63.5,57.8,97,73,43,30.12,30.03,12,2,19,0.00
2013-7-6,82.2,73.0,63.9,68.8,66.1,63.3,98,80,57,30.09,30.00,12,2,17,0.00
2013-7-7,87.6,77.6,68.4,72.0,69.0,66.0,95,76,55,30.03,29.97,12,2,19,0.00
2013-7-8,86.9,77.4,71.2,75.2,71.9,69.3,97,83,64,30.06,29.97,14,3,22,0.16
2013-7-9,83.8,77.7,73.8,78.8,75.0,72.4,98,92,79,30.03,29.88,12,2,17,0.12
2013-7-10,81.9,76.8,66.2,76.0,67.6,56.6,98,75,46,30.03,29.88,10,3,14,0.00
2013-7-11,79.9,71.3,63.1,62.1,57.1,49.9,93,64,36,30.12,30.03,12,2,20,0.00
2013-7-12,81.7,70.4,57.7,57.7,51.7,46.6,83,55,30,30.18,30.09,7,1,12,0.00
2013-7-13,83.7,73.4,60.4,63.3,59.3,55.8,93,64,40,30.18,30.12,12,3,19,0.00
2013-7-14,87.6,77.8,67.1,70.2,66.6,60.2,91,70,49,30.24,30.15,14,1,22,0.00
2013-7-15,88.0,78.2,70.7,76.5,72.2,67.5,97,83,60,30.29,30.24,12,0,14,0.12
2013-7-16,89.8,81.5,72.3,77.1,73.9,71.4,98,79,59,30.32,30.27,12,0,15,0.00
2013-7-17,91.2,82.7,72.5,75.2,73.0,70.9,96,74,53,30.35,30.21,7,0,12,0.00
2013-7-18,91.6,83.3,73.9,77.5,74.9,72.3,95,77,57,30.24,30.00,12,1,17,0.00
2013-7-19,92.7,84.1,75.0,74.7,71.4,66.6,91,68,44,30.00,29.79,21,3,21,0.00
2013-7-20,84.4,77.1,69.1,68.1,64.2,59.5,91,67,44,29.97,29.85,7,0,11,0.04
2013-7-21,86.0,75.9,66.4,69.6,67.3,65.4,97,76,55,30.00,29.88,16,2,17,0.00
2013-7-22,85.8,76.2,66.6,71.6,67.8,62.9,98,77,54,29.91,29.76,8,1,27,0.20
2013-7-23,75.7,70.0,62.4,67.0,61.9,54.1,97,77,49,30.00,29.70,12,2,17,0.04
2013-7-24,73.2,65.4,55.8,56.7,53.5,50.1,95,68,45,30.09,30.00,11,0,17,0.00
2013-7-25,78.4,68.3,55.0,59.9,56.1,53.1,94,68,46,30.15,30.06,6,0,13,0.00
2013-7-26,72.0,67.8,61.7,67.4,62.5,58.0,92,83,69,30.09,29.91,15,3,22,0.04
2013-7-27,65.3,60.2,55.2,57.9,51.5,45.4,96,74,51,29.97,29.91,8,3,12,0.00
2013-7-28,68.4,60.4,54.0,53.9,49.6,47.0,92,69,47,30.06,29.91,6,0,15,0.00
2013-7-29,75.2,64.3,52.7,58.9,54.2,49.5,93,71,51,30.21,30.06,10,1,12,0.00
2013-7-30,68.7,64.1,57.7,65.1,60.8,54.5,98,89,81,30.21,30.09,16,4,21,0.08
2013-7-31,74.5,68.3,64.0,66.4,65.1,63.5,98,90,73,30.09,30.00,7,1,8,0.04
2013-8-1,77.5,69.6,61.9,64.1,57.8,50.5,96,70,41,30.03,29.97,12,2,17,0.00
2013-8-2,82.4,73.0,64.4,69.2,64.5,57.3,96,76,61,30.00,29.88,11,2,15,0.16
2013-8-3,77.4,70.9,63.1,62.8,56.5,48.0,81,62,36,30.15,29.97,12,2,16,0.00
2013-8-4,76.5,68.2,58.3,60.8,55.3,51.0,85,65,42,30.24,30.15,10,2,12,0.00
2013-8-5,70.9,65.5,58.8,65.8,61.0,55.2,95,85,76,30.15,29.94,15,3,22,0.12
2013-8-6,83.3,72.7,66.0,73.0,69.4,65.0,98,90,69,29.94,29.86,12,3,16,0.00
2013-8-7,84.6,76.2,68.0,75.2,70.1,63.3,98,83,57,29.95,29.80,10,2,17,0.00
2013-8-8,77.9,70.8,63.9,65.5,60.4,52.7,97,72,49,30.03,29.95,12,3,17,0.00
2013-8-9,80.4,70.6,59.4,66.2,59.3,52.8,90,69,55,30.03,29.98,8,1,10,0.00
2013-8-12,81.0,75.3,68.7,67.0,65.5,63.0,86,72,62,29.95,29.89,6,1,8,1.00
2013-8-13,70.3,64.7,56.7,63.0,52.1,44.4,92,66,40,30.15,29.95,12,3,17,0.00
2013-8-14,72.0,62.2,52.3,54.5,50.2,46.7,95,68,41,30.24,30.12,7,1,12,0.00
2013-8-15,72.9,63.9,54.5,58.4,53.4,50.0,90,71,45,30.18,30.09,6,0,8,0.00
2013-8-16,78.8,68.5,55.6,58.6,53.8,50.8,92,62,39,30.18,30.12,10,1,12,0.00
2013-8-17,79.2,68.2,55.6,61.0,53.6,50.3,89,63,38,30.24,30.15,12,2,16,0.00
2013-8-18,80.8,69.4,56.8,64.3,56.8,53.1,95,68,40,30.21,30.09,12,2,16,0.00
2013-8-19,82.9,71.4,58.6,64.6,61.1,57.1,96,72,47,30.12,30.03,12,2,17,0.00
2013-8-20,85.5,73.9,63.1,66.9,63.7,60.0,97,73,44,30.12,30.03,14,2,17,0.00
2013-8-21,87.6,76.8,64.9,69.9,65.9,63.5,96,72,47,30.09,29.98,12,3,19,0.00
2013-8-22,76.8,70.2,65.8,69.8,68.1,65.3,98,93,71,30.18,30.01,14,1,17,1.81
2013-8-23,81.1,70.7,61.2,67.4,58.6,50.9,98,70,36,30.18,30.09,12,2,20,0.00
2013-8-24,82.9,71.9,60.4,67.2,62.0,52.0,93,72,56,30.27,30.18,13,3,20,0.00
2013-8-25,86.0,74.9,63.7,70.6,65.0,58.8,86,72,59,30.27,30.15,12,3,19,0.00
2013-8-26,87.4,76.7,65.1,74.9,69.1,62.1,91,78,65,30.18,30.01,8,1,15,0.00
2013-8-27,90.1,81.0,72.5,75.7,72.4,67.6,94,76,60,30.03,29.86,12,2,19,0.00
2013-8-28,84.4,78.5,70.7,75.5,70.1,65.3,90,76,67,30.03,29.86,11,1,13,0.00
2013-8-29,85.3,76.3,68.9,71.2,69.4,67.1,98,81,58,30.09,29.98,11,2,15,0.00
2013-8-30,91.6,77.6,68.0,77.7,71.2,64.8,98,82,55,29.98,29.77,22,2,27,0.31
2013-8-31,78.8,72.5,68.4,73.3,69.2,65.6,98,90,79,29.86,29.77,12,2,17,0.28
2013-9-1,82.6,72.1,63.5,73.9,68.6,62.9,98,89,71,29.83,29.74,12,0,16,0.59
2013-9-2,75.7,68.4,60.4,68.3,61.6,55.9,97,80,57,30.01,29.83,7,0,11,0.00
2013-9-3,73.0,64.1,54.9,58.7,56.0,53.7,96,77,53,30.09,30.01,0,0,8,0.00
2013-9-4,79.7,68.4,55.9,63.3,59.2,54.2,97,75,45,30.15,30.03,0,0,8,0.00
2013-9-5,75.2,68.7,61.3,67.4,59.6,50.1,98,74,54,30.24,30.12,12,2,17,0.00
2013-9-6,82.8,70.7,60.3,68.0,60.2,50.5,85,70,57,30.21,30.01,8,1,15,0.00
2013-9-7,82.9,72.9,63.5,69.7,66.0,62.0,95,80,57,30.03,29.89,9,0,12,0.00
2013-9-8,79.7,73.6,69.3,69.8,68.4,66.5,97,84,69,30.01,29.92,16,2,19,0.16
2013-9-9,90.0,78.5,67.1,75.9,71.6,66.5,98,81,61,29.95,29.83,12,2,17,0.00
2013-9-10,92.1,81.7,72.0,72.1,66.6,63.5,80,62,39,30.03,29.89,12,2,16,0.00
2013-9-11,88.2,77.8,72.5,70.2,67.2,64.5,87,70,53,30.06,30.01,10,1,14,0.00
2013-9-12,77.4,70.5,59.4,68.8,57.9,48.8,94,67,39,30.09,29.98,12,2,18,0.00
2013-9-13,66.9,58.6,50.2,54.4,45.1,39.5,86,63,37,30.18,30.09,8,2,14,0.00
2013-9-14,70.5,58.3,45.5,51.2,45.6,42.6,96,66,38,30.18,30.03,8,1,16,0.00
2013-9-15,60.8,57.7,54.7,59.6,53.6,43.9,98,87,66,30.15,29.98,6,0,12,0.43
2013-9-16,66.0,57.7,48.9,58.3,49.7,44.8,98,77,50,30.36,30.15,15,3,17,0.00
2013-9-17,70.5,59.4,48.2,54.7,51.1,45.7,96,76,54,30.33,30.09,16,3,20,0.00
2013-9-18,79.7,67.0,59.4,68.1,61.4,52.3,98,83,63,30.09,29.92,17,3,20,0.39
2013-9-19,88.3,76.6,68.0,72.4,68.3,62.3,98,78,51,29.95,29.77,17,5,21,0.00
2013-9-20,72.0,66.5,57.2,67.7,60.8,51.1,98,83,56,29.86,29.77,11,2,12,0.16
2013-9-21,66.0,58.3,50.7,53.4,48.9,45.2,96,73,48,29.95,29.83,12,2,17,0.00
2013-9-22,67.6,56.3,45.1,49.9,46.8,43.2,94,73,47,30.06,29.95,11,1,12,0.00
2013-9-23,69.6,57.9,46.6,50.7,47.0,44.0,92,70,43,30.12,30.01,12,2,19,0.00
2013-9-24,72.1,60.3,48.9,52.5,48.8,45.3,89,68,43,30.03,29.92,16,3,24,0.00
2013-9-25,72.7,61.4,52.0,54.6,50.4,47.8,95,71,42,29.98,29.92,15,2,17,0.00
2013-9-26,77.0,63.5,52.0,56.7,51.3,45.4,98,69,33,30.06,29.95,13,2,17,0.00
2013-9-27,80.2,66.1,52.7,56.4,51.2,46.9,94,63,34,30.15,30.03,16,4,26,0.00
2013-9-28,62.4,59.3,56.5,47.7,47.3,47.0,72,65,58,30.06,30.06,0,0,8,0.00
2013-9-30,74.3,60.2,46.0,54.9,47.8,43.4,98,68,36,30.01,29.86,17,3,21,0.00
2013-10-1,78.3,67.7,57.0,65.1,61.3,53.5,98,82,54,29.98,29.89,17,4,29,0.00
2013-10-2,79.5,69.2,61.7,65.1,54.2,45.6,98,64,34,30.09,29.98,12,3,17,0.00
2013-10-3,75.4,68.1,61.3,70.0,65.6,54.2,98,92,77,29.98,29.83,17,2,17,0.31
2013-10-4,73.2,68.9,64.4,69.7,67.3,63.2,98,95,88,29.98,29.92,11,2,16,0.00
2013-10-5,76.5,70.0,61.0,73.8,67.3,59.8,98,91,76,29.95,29.77,8,1,12,0.12
2013-10-6,60.4,53.1,45.7,58.5,45.1,37.5,95,76,48,29.80,29.71,12,2,17,0.12
2013-10-7,68.5,55.0,43.7,50.0,45.1,42.0,98,73,42,30.06,29.80,10,2,12,0.00
2013-10-8,74.8,59.7,45.5,52.9,47.2,44.2,96,67,35,30.18,30.06,16,2,19,0.00
2013-10-9,72.3,59.3,46.8,49.9,45.2,40.1,96,64,32,30.24,30.12,17,2,21,0.00
2013-10-10,74.5,60.7,47.1,54.2,50.4,45.8,96,72,44,30.18,30.03,11,1,17,0.00
2013-10-11,75.9,63.9,53.4,59.5,53.2,50.4,93,71,45,30.06,29.95,22,4,31,0.00
2013-10-12,69.3,61.4,52.7,63.1,52.1,39.4,94,73,43,30.18,29.95,12,2,16,0.00
2013-10-13,63.3,52.8,43.5,43.3,38.1,34.2,87,60,35,30.39,30.21,6,1,11,0.00
2013-10-14,64.0,51.2,40.3,46.0,41.3,36.3,92,71,43,30.39,30.12,16,4,21,0.00
2013-10-15,66.9,56.9,49.5,63.1,50.1,41.9,98,78,67,30.12,29.77,12,5,20,0.00
2013-10-16,53.4,50.4,46.0,45.5,43.4,40.4,85,77,72,29.95,29.86,12,3,15,0.00
2013-10-17,55.9,49.2,42.8,47.8,43.7,36.9,98,83,49,29.95,29.83,10,1,12,0.16
2013-10-18,49.1,44.9,39.4,43.8,38.7,36.0,98,79,63,29.98,29.83,8,3,12,0.00
2013-10-19,53.8,47.1,40.3,38.4,36.2,32.3,85,67,45,29.95,29.80,17,4,17,0.00
2013-10-20,63.5,51.1,39.2,46.2,40.5,35.7,90,69,44,29.89,29.71,14,3,25,0.00
2013-10-21,54.7,45.3,34.9,46.7,32.0,21.5,85,61,42,29.98,29.80,12,2,21,0.04
2013-10-22,38.8,34.8,28.6,36.9,29.9,22.3,98,83,62,30.01,29.92,8,0,11,0.20
2013-10-23,43.3,37.7,32.0,34.5,29.0,25.9,98,73,52,30.03,29.92,7,1,12,0.00
2013-10-24,41.2,37.8,32.2,31.0,25.1,21.2,77,61,46,30.30,30.03,10,3,21,0.00
2013-10-25,52.2,40.1,27.1,30.6,25.6,21.7,82,58,38,30.42,30.06,17,4,21,0.00
2013-10-26,53.2,45.7,35.2,33.9,28.4,24.8,72,51,41,30.09,29.89,17,6,22,0.00
2013-10-27,55.0,42.0,29.8,32.4,28.4,24.7,82,61,39,30.06,29.98,10,2,17,0.00
2013-10-28,57.2,43.8,33.1,42.4,34.6,27.9,83,71,52,30.36,30.06,12,4,19,0.00
2013-10-29,57.0,46.3,36.7,45.8,38.2,33.4,97,75,50,30.33,30.12,17,5,17,0.00
2013-10-30,59.0,53.1,47.8,58.4,52.0,45.8,98,96,83,30.12,29.77,12,4,16,1.18
2013-10-31,62.4,58.0,46.2,61.8,57.1,43.5,98,97,90,29.77,29.24,17,5,20,1.97
2013-11-1,47.5,46.0,43.2,45.7,42.5,40.8,98,88,78,29.74,29.41,12,4,17,0.04
2013-11-2,47.5,41.5,36.5,42.6,38.0,34.1,98,88,67,30.15,29.74,11,2,12,0.00
2013-11-3,52.0,42.3,31.5,41.3,34.9,30.7,98,77,50,30.30,30.15,16,5,22,0.00
2013-11-4,57.6,50.0,41.4,43.6,39.3,35.1,83,67,52,30.24,30.09,33,11,34,0.00
2013-11-5,54.0,52.2,49.1,52.7,48.4,43.4,98,87,71,30.24,29.95,20,7,31,0.04
2013-11-6,56.8,46.8,36.1,56.3,44.1,28.7,98,90,74,30.18,29.80,21,11,29,0.51
2013-11-7,43.7,35.1,28.9,33.3,29.1,25.5,90,79,60,30.27,30.18,17,8,22,0.00
2013-11-8,50.9,39.7,27.3,33.5,30.1,25.2,93,71,44,30.33,29.95,29,8,35,0.00
2013-11-9,59.4,49.6,41.9,39.3,35.9,26.0,76,60,46,30.15,29.86,26,14,42,0.00
2013-11-10,49.5,41.1,32.5,31.2,28.4,25.4,77,61,47,30.36,30.15,16,8,20,0.00
2013-11-11,47.7,37.7,23.7,34.1,28.1,14.4,93,69,56,30.51,30.09,20,10,27,0.04
2013-11-12,32.4,25.7,20.7,17.1,15.2,13.6,74,65,51,30.71,30.51,21,11,24,0.00
2013-11-13,40.6,31.5,19.8,19.2,16.8,13.1,75,56,40,30.57,30.15,25,13,32,0.08
2013-11-14,50.5,40.4,31.1,26.5,21.9,17.2,57,48,39,30.15,29.95,31,12,37,0.00
2013-11-15,50.5,41.6,36.3,35.2,28.9,23.6,84,61,46,29.98,29.92,21,9,25,0.00
2013-11-16,59.7,51.4,36.7,57.6,49.6,31.7,98,93,83,29.95,29.56,35,16,53,0.12
2013-11-17,67.3,54.3,42.1,64.1,50.5,35.4,98,87,71,29.67,28.59,36,18,47,0.16
2013-11-18,43.5,38.1,30.7,36.1,28.3,23.5,83,68,50,30.17,29.67,31,14,34,0.00
2013-11-19,41.9,33.0,24.4,28.4,24.9,20.6,87,73,55,30.26,30.14,13,5,17,0.00
2013-11-20,42.1,36.4,28.6,38.4,30.6,24.6,97,80,61,30.17,29.97,30,9,34,0.16
2013-11-21,48.9,44.2,39.7,46.0,42.5,38.4,98,94,85,30.11,30.00,12,3,17,0.00
2013-11-22,42.3,35.4,26.4,40.5,30.2,20.7,97,82,64,30.38,30.09,26,10,31,0.00
2013-11-23,26.4,21.3,14.0,20.6,9.7,3.0,80,61,45,30.62,30.35,31,13,39,0.00
2013-11-24,27.1,18.9,10.0,7.8,4.6,-0.7,66,54,42,30.62,30.26,21,9,25,0.00
2013-11-25,32.2,28.1,21.2,25.3,17.3,7.6,81,64,50,30.26,29.97,23,12,30,0.00
2013-11-26,34.9,28.7,15.8,27.4,20.0,3.1,82,70,52,30.09,29.94,31,11,41,0.00
2013-11-27,27.0,19.5,11.5,11.4,6.3,-0.1,63,56,46,30.14,30.06,22,9,29,0.00
2013-11-28,34.9,25.8,19.2,15.7,12.4,8.5,77,57,45,30.38,30.09,17,7,26,0.00
2013-11-29,35.1,25.5,13.5,20.2,14.8,8.2,81,65,46,30.50,30.26,12,5,22,0.00
2013-11-30,50.2,35.8,24.1,30.8,24.9,18.3,81,65,46,30.29,29.94,17,7,25,0.00
2013-12-1,44.6,35.5,27.1,33.3,27.6,23.2,89,74,54,30.00,29.88,12,4,15,0.00
2013-12-2,42.1,37.0,32.9,35.1,30.3,26.7,94,78,58,29.88,29.61,17,9,25,0.04
2013-12-3,47.3,42.6,36.7,46.8,41.9,35.1,98,98,94,29.61,29.52,17,7,22,0.00
2013-12-4,54.5,48.0,35.4,54.0,47.1,32.1,98,96,85,29.61,29.38,28,11,34,0.04
2013-12-5,34.9,24.7,20.1,31.4,15.8,8.8,88,69,60,30.17,29.64,26,14,34,0.00
2013-12-6,20.3,16.4,11.3,9.4,5.6,0.8,66,62,56,30.44,30.14,17,10,26,0.00
2013-12-7,19.4,12.5,7.2,4.7,0.4,-3.1,62,58,51,30.59,30.44,17,7,21,0.00
2013-12-8,24.1,19.9,12.9,20.5,11.9,1.3,90,72,58,30.47,29.85,22,8,27,0.00
2013-12-9,23.0,14.7,-0.9,20.8,7.2,-10.5,91,72,61,30.14,29.85,26,13,35,0.00
2013-12-10,22.1,11.9,-3.8,9.2,0.6,-13.2,64,60,55,30.20,29.91,26,11,35,0.00
2013-12-11,18.3,11.0,-3.8,13.0,2.6,-14.5,83,69,59,30.47,30.14,17,7,22,0.00
2013-12-12,21.2,9.2,-4.9,8.7,-1.6,-15.6,69,61,55,30.44,30.09,22,8,30,0.00
2013-12-13,28.6,20.4,9.0,25.0,12.3,0.9,91,71,62,30.09,29.97,15,6,18,0.00
2013-12-14,30.4,28.1,19.6,29.4,26.4,15.0,98,93,82,29.97,29.79,20,9,22,0.00
2013-12-15,19.6,12.4,9.5,15.0,6.4,3.2,84,76,75,30.00,29.85,26,10,31,0.00
2013-12-16,21.4,15.8,9.7,15.2,9.0,3.4,90,74,61,30.03,29.91,12,5,17,0.00
2013-12-17,33.4,25.0,17.2,25.9,19.2,11.3,94,79,61,30.00,29.85,25,13,26,0.00
2013-12-18,32.9,22.8,11.7,26.9,14.3,5.0,80,70,55,30.06,29.70,27,10,33,0.00
2013-12-19,40.3,34.5,27.5,34.4,30.1,24.0,98,84,75,29.79,29.67,17,5,17,0.24
2013-12-20,34.9,33.4,28.9,34.4,32.9,28.5,98,98,98,29.70,29.61,12,5,17,0.16
2013-12-21,34.3,30.4,27.9,33.8,29.8,27.1,98,98,95,29.73,29.49,21,2,24,0.04
2013-12-22,34.0,29.3,23.2,33.3,27.1,19.6,98,92,84,30.03,29.47,12,1,26,0.00
2013-12-23,23.2,8.2,-1.8,19.5,4.2,-5.7,86,83,82,30.38,30.03,0,0,0,0.00
2013-12-24,18.7,5.0,-4.7,12.1,0.5,-8.6,83,81,74,30.47,30.20,0,0,0,0.00
2013-12-25,26.8,23.9,19.0,24.3,19.0,11.8,93,82,69,30.20,30.00,0,0,0,0.00
2013-12-26,34.9,26.9,13.8,28.7,20.1,8.0,82,75,68,30.17,30.00,18,9,26,0.00
2013-12-27,37.9,33.6,20.8,31.4,27.8,18.6,94,79,74,30.17,30.00,23,8,28,0.04
2013-12-28,46.4,38.6,29.7,34.6,31.1,26.8,92,75,62,30.00,29.73,24,10,29,0.04
2013-12-29,36.9,27.0,10.8,31.6,21.1,1.3,90,78,65,30.09,29.67,35,13,46,0.00
2013-12-30,10.8,5.8,-1.1,1.3,-3.4,-10.0,65,65,65,30.23,30.09,18,6,22,0.00
2013-12-31,12.0,7.5,-1.8,2.5,-1.8,-10.7,65,65,65,30.23,30.09,15,4,19,0.00
2014-1-1,22.5,16.2,11.8,17.3,9.4,2.4,86,74,65,30.14,30.03,16,8,26,0.00
2014-1-2,15.4,10.7,-0.6,10.1,4.1,-8.0,80,74,70,30.32,30.03,31,13,33,0.00